sensor_id;sensor_type;location;lat;lon;timestamp;pressure;altitude;pressure_sealevel;temperature;humidity
41686;BME280;27370;42.764;23.432;2022-11-03T00:01:05;96102.59;;;9.54;100.00
41686;BME280;27370;42.764;23.432;2022-11-03T00:03:31;96112.25;;;9.55;100.00
41686;BME280;27370;42.764;23.432;2022-11-03T00:05:56;96114.94;;;9.62;100.00
41686;BME280;27370;42.764;23.432;2022-11-03T00:08:39;96113.78;;;9.73;100.00
41686;BME280;27370;42.764;23.432;2022-11-03T00:11:06;96117.25;;;9.77;99.95
41686;BME280;27370;42.764;23.432;2022-11-03T00:13:32;96116.44;;;9.98;99.96
41686;BME280;27370;42.764;23.432;2022-11-03T00:15:58;96111.03;;;9.88;100.00
41686;BME280;27370;42.764;23.432;2022-11-03T00:18:24;96123.03;;;9.79;100.00
41686;BME280;27370;42.764;23.432;2022-11-03T00:21:01;96123.44;;;9.78;100.00
41686;BME280;27370;42.764;23.432;2022-11-03T00:23:29;96127.28;;;9.84;100.00
41686;BME280;27370;42.764;23.432;2022-11-03T00:26:01;96126.13;;;9.85;100.00
41686;BME280;27370;42.764;23.432;2022-11-03T00:28:29;96120.34;;;9.76;100.00
41686;BME280;27370;42.764;23.432;2022-11-03T00:30:55;96110.66;;;10.00;100.00
41686;BME280;27370;42.764;23.432;2022-11-03T00:33:20;96114.53;;;9.67;100.00
41686;BME280;27370;42.764;23.432;2022-11-03T00:35:55;96108.75;;;9.68;100.00
41686;BME280;27370;42.764;23.432;2022-11-03T00:38:21;96114.16;;;9.65;100.00
41686;BME280;27370;42.764;23.432;2022-11-03T00:41:01;96116.88;;;9.61;100.00
41686;BME280;27370;42.764;23.432;2022-11-03T00:43:28;96114.91;;;9.72;100.00
41686;BME280;27370;42.764;23.432;2022-11-03T00:45:54;96118.41;;;9.62;100.00
41686;BME280;27370;42.764;23.432;2022-11-03T00:48:20;96122.66;;;9.52;100.00
41686;BME280;27370;42.764;23.432;2022-11-03T00:53:41;96118.00;;;9.71;100.00
41686;BME280;27370;42.764;23.432;2022-11-03T00:56:10;96131.53;;;9.71;100.00
41686;BME280;27370;42.764;23.432;2022-11-03T00:58:36;96116.88;;;9.75;100.00
41686;BME280;27370;42.764;23.432;2022-11-03T01:01:05;96118.78;;;9.64;100.00
41686;BME280;27370;42.764;23.432;2022-11-03T01:03:34;96116.09;;;9.68;100.00
41686;BME280;27370;42.764;23.432;2022-11-03T01:06:00;96115.69;;;9.83;100.00
41686;BME280;27370;42.764;23.432;2022-11-03T01:08:45;96114.53;;;9.88;100.00
41686;BME280;27370;42.764;23.432;2022-11-03T01:11:14;96123.41;;;9.89;100.00
41686;BME280;27370;42.764;23.432;2022-11-03T01:13:59;96116.84;;;9.68;100.00
41686;BME280;27370;42.764;23.432;2022-11-03T01:16:25;96111.72;;;10.34;100.00
41686;BME280;27370;42.764;23.432;2022-11-03T01:18:50;96113.56;;;10.62;98.41
41686;BME280;27370;42.764;23.432;2022-11-03T01:21:16;96111.63;;;10.63;99.46
41686;BME280;27370;42.764;23.432;2022-11-03T01:23:42;96108.59;;;10.47;99.07
41686;BME280;27370;42.764;23.432;2022-11-03T01:26:09;96117.50;;;10.40;100.00
41686;BME280;27370;42.764;23.432;2022-11-03T01:28:36;96106.31;;;10.41;100.00
41686;BME280;27370;42.764;23.432;2022-11-03T01:31:17;96109.78;;;10.42;100.00
41686;BME280;27370;42.764;23.432;2022-11-03T01:33:43;96112.47;;;10.46;100.00
41686;BME280;27370;42.764;23.432;2022-11-03T01:36:13;96114.03;;;10.43;100.00
41686;BME280;27370;42.764;23.432;2022-11-03T01:38:40;96113.66;;;10.34;100.00
41686;BME280;27370;42.764;23.432;2022-11-03T01:41:07;96114.81;;;10.36;100.00
41686;BME280;27370;42.764;23.432;2022-11-03T01:43:34;96113.66;;;10.37;100.00
41686;BME280;27370;42.764;23.432;2022-11-03T01:46:22;96116.38;;;10.41;100.00
41686;BME280;27370;42.764;23.432;2022-11-03T01:49:03;96115.59;;;10.33;100.00
41686;BME280;27370;42.764;23.432;2022-11-03T01:51:32;96122.22;;;10.22;100.00
41686;BME280;27370;42.764;23.432;2022-11-03T01:54:02;96121.81;;;10.20;100.00
41686;BME280;27370;42.764;23.432;2022-11-03T01:56:31;96121.81;;;10.20;100.00
41686;BME280;27370;42.764;23.432;2022-11-03T01:58:57;96128.34;;;10.36;100.00
41686;BME280;27370;42.764;23.432;2022-11-03T02:01:23;96131.88;;;10.23;100.00
41686;BME280;27370;42.764;23.432;2022-11-03T02:03:51;96119.09;;;10.20;100.00
41686;BME280;27370;42.764;23.432;2022-11-03T02:06:22;96126.84;;;10.25;100.00
41686;BME280;27370;42.764;23.432;2022-11-03T02:08:53;96117.94;;;10.17;100.00
41686;BME280;27370;42.764;23.432;2022-11-03T02:11:21;96118.38;;;10.01;100.00
41686;BME280;27370;42.764;23.432;2022-11-03T02:14:10;96118.38;;;9.98;100.00
41686;BME280;27370;42.764;23.432;2022-11-03T02:16:37;96119.53;;;10.00;100.00
41686;BME280;27370;42.764;23.432;2022-11-03T02:19:03;96115.66;;;10.05;100.00
41686;BME280;27370;42.764;23.432;2022-11-03T02:21:45;96114.47;;;10.09;100.00
41686;BME280;27370;42.764;23.432;2022-11-03T02:26:53;96131.91;;;9.73;100.00
41686;BME280;27370;42.764;23.432;2022-11-03T02:29:19;96129.22;;;9.76;100.00
41686;BME280;27370;42.764;23.432;2022-11-03T02:31:49;96127.31;;;9.73;100.00
41686;BME280;27370;42.764;23.432;2022-11-03T02:34:26;96121.81;;;10.20;100.00
41686;BME280;27370;42.764;23.432;2022-11-03T02:37:01;96114.91;;;9.97;100.00
41686;BME280;27370;42.764;23.432;2022-11-03T02:39:33;96116.47;;;9.80;100.00
41686;BME280;27370;42.764;23.432;2022-11-03T02:42:02;96126.50;;;9.98;100.00
41686;BME280;27370;42.764;23.432;2022-11-03T02:44:31;96124.19;;;10.00;100.00
41686;BME280;27370;42.764;23.432;2022-11-03T02:47:00;96123.03;;;9.65;100.00
41686;BME280;27370;42.764;23.432;2022-11-03T02:49:27;96120.34;;;9.51;100.00
41686;BME280;27370;42.764;23.432;2022-11-03T02:51:59;96118.78;;;9.36;100.00
41686;BME280;27370;42.764;23.432;2022-11-03T02:54:30;96121.88;;;9.70;100.00
41686;BME280;27370;42.764;23.432;2022-11-03T02:57:06;96124.97;;;9.54;100.00
41686;BME280;27370;42.764;23.432;2022-11-03T02:59:44;96129.63;;;9.54;100.00
41686;BME280;27370;42.764;23.432;2022-11-03T03:02:15;96132.28;;;9.71;100.00
41686;BME280;27370;42.764;23.432;2022-11-03T03:04:49;96129.59;;;9.36;100.00
41686;BME280;27370;42.764;23.432;2022-11-03T03:07:27;96133.09;;;9.40;100.00
41686;BME280;27370;42.764;23.432;2022-11-03T03:10:07;96133.09;;;9.61;100.00
41686;BME280;27370;42.764;23.432;2022-11-03T03:12:36;96136.19;;;9.56;100.00
41686;BME280;27370;42.764;23.432;2022-11-03T03:15:05;96133.88;;;9.55;100.00
41686;BME280;27370;42.764;23.432;2022-11-03T03:20:36;96131.91;;;9.48;100.00
41686;BME280;27370;42.764;23.432;2022-11-03T03:23:12;96130.38;;;9.29;100.00
41686;BME280;27370;42.764;23.432;2022-11-03T03:25:44;96135.03;;;9.61;100.00
41686;BME280;27370;42.764;23.432;2022-11-03T03:28:24;96133.09;;;9.33;100.00
41686;BME280;27370;42.764;23.432;2022-11-03T03:30:52;96134.63;;;9.34;100.00
41686;BME280;27370;42.764;23.432;2022-11-03T03:33:20;96138.84;;;9.06;100.00
41686;BME280;27370;42.764;23.432;2022-11-03T03:35:49;96138.41;;;8.97;100.00
41686;BME280;27370;42.764;23.432;2022-11-03T03:38:19;96143.41;;;8.88;100.00
41686;BME280;27370;42.764;23.432;2022-11-03T03:40:50;96144.94;;;8.85;100.00
41686;BME280;27370;42.764;23.432;2022-11-03T03:43:18;96148.03;;;8.84;100.00
41686;BME280;27370;42.764;23.432;2022-11-03T03:45:45;96139.03;;;8.51;100.00
41686;BME280;27370;42.764;23.432;2022-11-03T03:48:13;96137.09;;;8.45;100.00
41686;BME280;27370;42.764;23.432;2022-11-03T03:50:40;96140.19;;;8.54;100.00
41686;BME280;27370;42.764;23.432;2022-11-03T03:53:10;96142.47;;;8.41;100.00
41686;BME280;27370;42.764;23.432;2022-11-03T03:55:37;96138.28;;;8.58;100.00
41686;BME280;27370;42.764;23.432;2022-11-03T03:58:04;96144.00;;;8.42;100.00
41686;BME280;27370;42.764;23.432;2022-11-03T04:00:30;96135.13;;;8.38;100.00
41686;BME280;27370;42.764;23.432;2022-11-03T04:02:56;96131.72;;;8.59;100.00
41686;BME280;27370;42.764;23.432;2022-11-03T04:05:23;96142.53;;;8.59;100.00
41686;BME280;27370;42.764;23.432;2022-11-03T04:07:48;96136.00;;;8.64;100.00
41686;BME280;27370;42.764;23.432;2022-11-03T04:10:16;96137.94;;;8.63;100.00
41686;BME280;27370;42.764;23.432;2022-11-03T04:12:43;96147.19;;;8.69;100.00
41686;BME280;27370;42.764;23.432;2022-11-03T04:15:28;96140.59;;;8.56;100.00
41686;BME280;27370;42.764;23.432;2022-11-03T04:18:12;96138.56;;;8.35;100.00
41686;BME280;27370;42.764;23.432;2022-11-03T04:20:57;96140.81;;;8.29;100.00
41686;BME280;27370;42.764;23.432;2022-11-03T04:23:40;96130.75;;;8.19;100.00
41686;BME280;27370;42.764;23.432;2022-11-03T04:26:12;96129.63;;;8.24;100.00
41686;BME280;27370;42.764;23.432;2022-11-03T04:28:38;96140.69;;;8.05;100.00
41686;BME280;27370;42.764;23.432;2022-11-03T04:31:09;96133.78;;;8.11;100.00
41686;BME280;27370;42.764;23.432;2022-11-03T04:33:34;96139.91;;;8.01;100.00
41686;BME280;27370;42.764;23.432;2022-11-03T04:36:00;96137.88;;;7.90;100.00
41686;BME280;27370;42.764;23.432;2022-11-03T04:38:26;96133.31;;;7.94;100.00
41686;BME280;27370;42.764;23.432;2022-11-03T04:40:55;96122.03;;;7.78;100.00
41686;BME280;27370;42.764;23.432;2022-11-03T04:43:32;96126.56;;;7.67;100.00
41686;BME280;27370;42.764;23.432;2022-11-03T04:45:58;96129.59;;;7.62;100.00
41686;BME280;27370;42.764;23.432;2022-11-03T04:48:24;96123.03;;;7.56;100.00
41686;BME280;27370;42.764;23.432;2022-11-03T04:50:53;96136.91;;;7.61;100.00
41686;BME280;27370;42.764;23.432;2022-11-03T04:53:21;96139.59;;;7.58;100.00
41686;BME280;27370;42.764;23.432;2022-11-03T04:55:50;96142.34;;;7.68;100.00
41686;BME280;27370;42.764;23.432;2022-11-03T04:58:22;96139.47;;;7.44;100.00
41686;BME280;27370;42.764;23.432;2022-11-03T05:00:55;96144.72;;;7.26;100.00
41686;BME280;27370;42.764;23.432;2022-11-03T05:03:33;96145.78;;;7.18;100.00
41686;BME280;27370;42.764;23.432;2022-11-03T05:06:01;96148.44;;;7.14;100.00
41686;BME280;27370;42.764;23.432;2022-11-03T05:08:33;96153.81;;;7.11;100.00
41686;BME280;27370;42.764;23.432;2022-11-03T05:10:59;96151.66;;;7.27;100.00
41686;BME280;27370;42.764;23.432;2022-11-03T05:13:26;96158.19;;;7.26;100.00
41686;BME280;27370;42.764;23.432;2022-11-03T05:16:02;96161.25;;;7.24;100.00
41686;BME280;27370;42.764;23.432;2022-11-03T05:18:34;96159.28;;;7.21;100.00
41686;BME280;27370;42.764;23.432;2022-11-03T05:21:13;96161.56;;;7.19;100.00
41686;BME280;27370;42.764;23.432;2022-11-03T05:23:46;96165.25;;;7.41;100.00
41686;BME280;27370;42.764;23.432;2022-11-03T05:26:21;96162.69;;;7.55;100.00
41686;BME280;27370;42.764;23.432;2022-11-03T05:28:54;96162.63;;;7.48;100.00
41686;BME280;27370;42.764;23.432;2022-11-03T05:31:27;96174.84;;;7.38;100.00
41686;BME280;27370;42.764;23.432;2022-11-03T05:33:55;96169.78;;;7.33;100.00
41686;BME280;27370;42.764;23.432;2022-11-03T05:36:23;96173.44;;;7.52;100.00
41686;BME280;27370;42.764;23.432;2022-11-03T05:38:55;96179.59;;;7.52;100.00
41686;BME280;27370;42.764;23.432;2022-11-03T05:41:28;96186.63;;;7.67;100.00
41686;BME280;27370;42.764;23.432;2022-11-03T05:46:19;96185.09;;;7.66;100.00
41686;BME280;27370;42.764;23.432;2022-11-03T05:48:45;96186.72;;;7.75;100.00
41686;BME280;27370;42.764;23.432;2022-11-03T05:51:22;96194.47;;;7.83;100.00
41686;BME280;27370;42.764;23.432;2022-11-03T05:53:54;96197.72;;;8.07;100.00
41686;BME280;27370;42.764;23.432;2022-11-03T05:56:23;96191.69;;;8.24;100.00
41686;BME280;27370;42.764;23.432;2022-11-03T05:58:51;96191.81;;;8.42;100.00
41686;BME280;27370;42.764;23.432;2022-11-03T06:01:18;96200.75;;;8.56;100.00
41686;BME280;27370;42.764;23.432;2022-11-03T06:03:46;96199.66;;;8.72;100.00
41686;BME280;27370;42.764;23.432;2022-11-03T06:06:19;96194.34;;;8.86;100.00
41686;BME280;27370;42.764;23.432;2022-11-03T06:08:45;96201.31;;;9.01;100.00
41686;BME280;27370;42.764;23.432;2022-11-03T06:11:20;96203.69;;;9.28;100.00
41686;BME280;27370;42.764;23.432;2022-11-03T06:13:47;96206.84;;;9.51;100.00
41686;BME280;27370;42.764;23.432;2022-11-03T06:18:43;96213.81;;;9.88;100.00
41686;BME280;27370;42.764;23.432;2022-11-03T06:21:13;96214.97;;;10.08;100.00
41686;BME280;27370;42.764;23.432;2022-11-03T06:23:41;96218.47;;;10.30;100.00
41686;BME280;27370;42.764;23.432;2022-11-03T06:26:15;96231.56;;;10.60;100.00
41686;BME280;27370;42.764;23.432;2022-11-03T06:28:42;96224.56;;;10.73;100.00
41686;BME280;27370;42.764;23.432;2022-11-03T06:31:27;96222.97;;;10.86;100.00
41686;BME280;27370;42.764;23.432;2022-11-03T06:33:54;96226.41;;;10.97;100.00
41686;BME280;27370;42.764;23.432;2022-11-03T06:36:30;96227.50;;;11.18;100.00
41686;BME280;27370;42.764;23.432;2022-11-03T06:39:00;96227.84;;;11.27;100.00
41686;BME280;27370;42.764;23.432;2022-11-03T06:41:28;96228.88;;;11.54;100.00
41686;BME280;27370;42.764;23.432;2022-11-03T06:43:57;96224.88;;;11.70;99.68
41686;BME280;27370;42.764;23.432;2022-11-03T06:46:27;96226.66;;;11.94;98.33
41686;BME280;27370;42.764;23.432;2022-11-03T06:48:57;96229.63;;;12.14;97.09
41686;BME280;27370;42.764;23.432;2022-11-03T06:51:25;96228.28;;;12.33;95.05
41686;BME280;27370;42.764;23.432;2022-11-03T06:53:52;96230.00;;;12.57;92.97
41686;BME280;27370;42.764;23.432;2022-11-03T06:56:23;96233.03;;;12.63;92.40
41686;BME280;27370;42.764;23.432;2022-11-03T06:58:51;96226.19;;;12.51;92.41
41686;BME280;27370;42.764;23.432;2022-11-03T07:01:21;96231.84;;;12.64;92.78
41686;BME280;27370;42.764;23.432;2022-11-03T07:03:49;96231.41;;;12.72;92.58
41686;BME280;27370;42.764;23.432;2022-11-03T07:06:24;96236.25;;;12.88;90.75
41686;BME280;27370;42.764;23.432;2022-11-03T07:08:58;96225.78;;;12.90;90.42
41686;BME280;27370;42.764;23.432;2022-11-03T07:11:46;96230.00;;;12.95;89.94
41686;BME280;27370;42.764;23.432;2022-11-03T07:14:24;96230.97;;;13.08;88.99
41686;BME280;27370;42.764;23.432;2022-11-03T07:17:14;96232.03;;;13.21;89.23
41686;BME280;27370;42.764;23.432;2022-11-03T07:19:42;96236.13;;;13.33;87.23
41686;BME280;27370;42.764;23.432;2022-11-03T07:22:23;96224.47;;;13.36;87.52
41686;BME280;27370;42.764;23.432;2022-11-03T07:24:54;96219.75;;;13.40;87.17
41686;BME280;27370;42.764;23.432;2022-11-03T07:29:47;96217.69;;;13.47;86.95
41686;BME280;27370;42.764;23.432;2022-11-03T07:32:23;96224.22;;;13.81;85.20
41686;BME280;27370;42.764;23.432;2022-11-03T07:34:51;96220.09;;;13.69;85.00
41686;BME280;27370;42.764;23.432;2022-11-03T07:37:23;96224.88;;;13.88;84.59
41686;BME280;27370;42.764;23.432;2022-11-03T07:39:51;96222.44;;;13.94;83.94
41686;BME280;27370;42.764;23.432;2022-11-03T07:42:21;96219.38;;;14.15;82.49
41686;BME280;27370;42.764;23.432;2022-11-03T07:44:48;96216.25;;;14.17;81.49
41686;BME280;27370;42.764;23.432;2022-11-03T07:47:18;96214.34;;;14.37;80.42
41686;BME280;27370;42.764;23.432;2022-11-03T07:49:44;96212.53;;;14.54;79.20
41686;BME280;27370;42.764;23.432;2022-11-03T07:52:13;96208.91;;;14.37;81.61
41686;BME280;27370;42.764;23.432;2022-11-03T07:54:39;96202.81;;;14.53;80.10
41686;BME280;27370;42.764;23.432;2022-11-03T07:57:12;96211.47;;;14.48;81.01
41686;BME280;27370;42.764;23.432;2022-11-03T07:59:44;96214.06;;;14.31;82.43
41686;BME280;27370;42.764;23.432;2022-11-03T08:04:43;96194.72;;;14.26;82.90
41686;BME280;27370;42.764;23.432;2022-11-03T08:07:08;96194.66;;;14.29;84.38
41686;BME280;27370;42.764;23.432;2022-11-03T08:09:34;96199.41;;;14.49;85.24
41686;BME280;27370;42.764;23.432;2022-11-03T08:11:59;96189.00;;;14.40;84.86
41686;BME280;27370;42.764;23.432;2022-11-03T08:14:42;96191.22;;;14.88;83.83
41686;BME280;27370;42.764;23.432;2022-11-03T08:17:07;96185.78;;;15.08;81.49
41686;BME280;27370;42.764;23.432;2022-11-03T08:19:33;96191.03;;;14.99;78.94
41686;BME280;27370;42.764;23.432;2022-11-03T08:21:58;96191.03;;;14.99;80.15
41686;BME280;27370;42.764;23.432;2022-11-03T08:24:24;96174.38;;;15.49;77.44
41686;BME280;27370;42.764;23.432;2022-11-03T08:26:49;96181.78;;;15.49;76.64
41686;BME280;27370;42.764;23.432;2022-11-03T08:29:15;96184.19;;;15.47;79.33
41686;BME280;27370;42.764;23.432;2022-11-03T08:31:42;96183.13;;;15.77;75.88
41686;BME280;27370;42.764;23.432;2022-11-03T08:34:08;96173.22;;;15.99;75.02
41686;BME280;27370;42.764;23.432;2022-11-03T08:36:36;96173.13;;;16.35;76.95
41686;BME280;27370;42.764;23.432;2022-11-03T08:39:02;96168.69;;;16.70;70.62
41686;BME280;27370;42.764;23.432;2022-11-03T08:41:28;96170.28;;;16.84;68.54
41686;BME280;27370;42.764;23.432;2022-11-03T08:43:53;96164.16;;;16.64;69.26
41686;BME280;27370;42.764;23.432;2022-11-03T08:46:19;96172.16;;;16.87;72.55
41686;BME280;27370;42.764;23.432;2022-11-03T08:48:45;96167.16;;;17.11;70.34
41686;BME280;27370;42.764;23.432;2022-11-03T08:51:10;96167.31;;;17.33;67.15
41686;BME280;27370;42.764;23.432;2022-11-03T08:53:38;96168.19;;;17.42;64.62
41686;BME280;27370;42.764;23.432;2022-11-03T08:56:04;96160.53;;;17.50;64.59
41686;BME280;27370;42.764;23.432;2022-11-03T08:58:30;96160.78;;;17.68;66.79
41686;BME280;27370;42.764;23.432;2022-11-03T09:00:56;96161.84;;;17.96;61.70
41686;BME280;27370;42.764;23.432;2022-11-03T09:03:22;96157.09;;;18.10;61.40
41686;BME280;27370;42.764;23.432;2022-11-03T09:05:47;96153.63;;;17.96;62.06
41686;BME280;27370;42.764;23.432;2022-11-03T09:08:13;96151.06;;;18.15;60.47
41686;BME280;27370;42.764;23.432;2022-11-03T09:10:38;96158.53;;;18.14;60.93
41686;BME280;27370;42.764;23.432;2022-11-03T09:13:04;96146.41;;;18.37;61.95
41686;BME280;27370;42.764;23.432;2022-11-03T09:15:30;96146.53;;;18.55;58.74
41686;BME280;27370;42.764;23.432;2022-11-03T09:17:55;96142.69;;;18.65;57.19
41686;BME280;27370;42.764;23.432;2022-11-03T09:20:21;96138.47;;;18.74;56.60
41686;BME280;27370;42.764;23.432;2022-11-03T09:22:46;96134.28;;;18.82;55.72
41686;BME280;27370;42.764;23.432;2022-11-03T09:25:12;96134.97;;;18.95;57.71
41686;BME280;27370;42.764;23.432;2022-11-03T09:27:37;96130.16;;;19.08;55.40
41686;BME280;27370;42.764;23.432;2022-11-03T09:30:04;96120.41;;;19.38;55.62
41686;BME280;27370;42.764;23.432;2022-11-03T09:32:30;96115.84;;;19.44;53.48
41686;BME280;27370;42.764;23.432;2022-11-03T09:34:55;96111.56;;;19.43;51.94
41686;BME280;27370;42.764;23.432;2022-11-03T09:37:21;96103.13;;;19.60;53.60
41686;BME280;27370;42.764;23.432;2022-11-03T09:39:47;96112.19;;;19.78;49.94
41686;BME280;27370;42.764;23.432;2022-11-03T09:42:14;96109.88;;;19.77;49.59
41686;BME280;27370;42.764;23.432;2022-11-03T09:44:40;96098.09;;;19.67;53.19
41686;BME280;27370;42.764;23.432;2022-11-03T09:47:06;96095.84;;;19.84;49.38
41686;BME280;27370;42.764;23.432;2022-11-03T09:49:35;96098.63;;;19.93;48.43
41686;BME280;27370;42.764;23.432;2022-11-03T09:52:01;96095.56;;;20.00;48.37
41686;BME280;27370;42.764;23.432;2022-11-03T09:54:27;96086.72;;;19.96;48.41
41686;BME280;27370;42.764;23.432;2022-11-03T09:56:56;96083.31;;;19.83;48.04
41686;BME280;27370;42.764;23.432;2022-11-03T09:59:23;96081.50;;;19.89;50.28
41686;BME280;27370;42.764;23.432;2022-11-03T10:01:50;96081.53;;;20.07;48.53
41686;BME280;27370;42.764;23.432;2022-11-03T10:04:35;96075.59;;;20.18;49.11
41686;BME280;27370;42.764;23.432;2022-11-03T10:07:01;96067.63;;;20.29;48.01
41686;BME280;27370;42.764;23.432;2022-11-03T10:09:27;96059.69;;;20.22;47.62
41686;BME280;27370;42.764;23.432;2022-11-03T10:11:54;96053.91;;;20.20;47.38
41686;BME280;27370;42.764;23.432;2022-11-03T10:14:20;96058.63;;;19.92;53.29
41686;BME280;27370;42.764;23.432;2022-11-03T10:16:52;96051.44;;;20.04;49.60
41686;BME280;27370;42.764;23.432;2022-11-03T10:19:19;96055.88;;;19.92;48.95
41686;BME280;27370;42.764;23.432;2022-11-03T10:21:45;96045.31;;;20.09;50.60
41686;BME280;27370;42.764;23.432;2022-11-03T10:24:11;96043.34;;;20.18;49.70
41686;BME280;27370;42.764;23.432;2022-11-03T10:26:44;96039.38;;;20.38;49.95
41686;BME280;27370;42.764;23.432;2022-11-03T10:29:17;96035.84;;;20.28;47.99
41686;BME280;27370;42.764;23.432;2022-11-03T10:31:47;96033.28;;;20.15;49.63
41686;BME280;27370;42.764;23.432;2022-11-03T10:34:32;96028.22;;;20.32;48.72
41686;BME280;27370;42.764;23.432;2022-11-03T10:37:24;96016.59;;;20.28;49.73
41686;BME280;27370;42.764;23.432;2022-11-03T10:39:54;96016.31;;;20.26;49.39
41686;BME280;27370;42.764;23.432;2022-11-03T10:42:25;96016.75;;;20.52;49.38
41686;BME280;27370;42.764;23.432;2022-11-03T10:44:54;96004.19;;;20.69;46.59
41686;BME280;27370;42.764;23.432;2022-11-03T10:47:23;96004.22;;;20.51;47.13
41686;BME280;27370;42.764;23.432;2022-11-03T10:49:49;95994.28;;;20.35;49.65
41686;BME280;27370;42.764;23.432;2022-11-03T10:52:23;95999.66;;;20.39;49.26
41686;BME280;27370;42.764;23.432;2022-11-03T10:54:51;95993.38;;;20.29;49.09
41686;BME280;27370;42.764;23.432;2022-11-03T10:57:18;95992.47;;;20.51;48.53
41686;BME280;27370;42.764;23.432;2022-11-03T10:59:47;95986.47;;;20.61;47.89
41686;BME280;27370;42.764;23.432;2022-11-03T11:02:26;95983.81;;;20.76;47.59
41686;BME280;27370;42.764;23.432;2022-11-03T11:04:58;95979.66;;;20.90;46.70
41686;BME280;27370;42.764;23.432;2022-11-03T11:07:38;95977.06;;;20.86;44.60
41686;BME280;27370;42.764;23.432;2022-11-03T11:10:05;95969.31;;;21.08;45.81
41686;BME280;27370;42.764;23.432;2022-11-03T11:12:31;95959.31;;;21.20;46.65
41686;BME280;27370;42.764;23.432;2022-11-03T11:14:58;95956.69;;;21.26;46.15
41686;BME280;27370;42.764;23.432;2022-11-03T11:22:47;95948.03;;;21.66;44.02
41686;BME280;27370;42.764;23.432;2022-11-03T11:25:14;95953.91;;;21.59;43.47
41686;BME280;27370;42.764;23.432;2022-11-03T11:33:00;95933.91;;;21.88;40.70
41686;BME280;27370;42.764;23.432;2022-11-03T11:38:59;95929.69;;;21.39;41.10
41686;BME280;27370;42.764;23.432;2022-11-03T11:52:54;95914.06;;;21.98;40.23
41686;BME280;27370;42.764;23.432;2022-11-03T11:55:33;95908.63;;;21.75;40.37
41686;BME280;27370;42.764;23.432;2022-11-03T11:58:03;95902.09;;;22.01;38.73
41686;BME280;27370;42.764;23.432;2022-11-03T12:00:33;95902.69;;;22.06;39.11
41686;BME280;27370;42.764;23.432;2022-11-03T12:03:00;95894.59;;;22.02;39.56
41686;BME280;27370;42.764;23.432;2022-11-03T12:05:31;95892.72;;;22.23;40.62
41686;BME280;27370;42.764;23.432;2022-11-03T12:07:57;95892.59;;;22.32;38.42
41686;BME280;27370;42.764;23.432;2022-11-03T12:12:54;95881.84;;;22.49;38.51
41686;BME280;27370;42.764;23.432;2022-11-03T12:15:54;95881.53;;;22.61;38.41
41686;BME280;27370;42.764;23.432;2022-11-03T12:18:36;95877.03;;;22.79;39.57
41686;BME280;27370;42.764;23.432;2022-11-03T12:21:07;95863.72;;;23.12;35.91
41686;BME280;27370;42.764;23.432;2022-11-03T12:23:44;95860.59;;;23.05;35.29
41686;BME280;27370;42.764;23.432;2022-11-03T12:28:56;95859.34;;;23.26;33.98
41686;BME280;27370;42.764;23.432;2022-11-03T12:31:22;95844.88;;;23.31;34.86
41686;BME280;27370;42.764;23.432;2022-11-03T12:33:47;95840.22;;;23.43;35.41
41686;BME280;27370;42.764;23.432;2022-11-03T12:36:13;95842.56;;;23.30;34.48
41686;BME280;27370;42.764;23.432;2022-11-03T12:38:38;95840.09;;;23.32;32.31
41686;BME280;27370;42.764;23.432;2022-11-03T12:41:03;95836.97;;;23.44;31.95
41686;BME280;27370;42.764;23.432;2022-11-03T12:43:55;95842.63;;;23.56;32.03
41686;BME280;27370;42.764;23.432;2022-11-03T12:46:22;95839.56;;;23.53;32.03
41686;BME280;27370;42.764;23.432;2022-11-03T12:48:48;95831.75;;;23.52;33.00
41686;BME280;27370;42.764;23.432;2022-11-03T12:51:19;95834.34;;;23.35;34.07
41686;BME280;27370;42.764;23.432;2022-11-03T12:53:45;95836.16;;;23.59;32.77
41686;BME280;27370;42.764;23.432;2022-11-03T12:56:12;95833.66;;;23.87;32.18
41686;BME280;27370;42.764;23.432;2022-11-03T12:58:38;95831.91;;;23.63;33.85
41686;BME280;27370;42.764;23.432;2022-11-03T13:01:04;95823.41;;;23.93;33.89
41686;BME280;27370;42.764;23.432;2022-11-03T13:03:31;95821.34;;;23.62;32.09
41686;BME280;27370;42.764;23.432;2022-11-03T13:05:57;95821.56;;;23.58;32.42
41686;BME280;27370;42.764;23.432;2022-11-03T13:08:23;95818.03;;;23.37;32.14
41686;BME280;27370;42.764;23.432;2022-11-03T13:10:49;95816.16;;;23.49;31.51
41686;BME280;27370;42.764;23.432;2022-11-03T13:13:15;95813.13;;;23.47;31.09
41686;BME280;27370;42.764;23.432;2022-11-03T13:15:40;95817.28;;;23.37;33.07
41686;BME280;27370;42.764;23.432;2022-11-03T13:18:06;95811.22;;;23.12;31.94
41686;BME280;27370;42.764;23.432;2022-11-03T13:20:32;95812.97;;;23.10;32.91
41686;BME280;27370;42.764;23.432;2022-11-03T13:22:57;95799.06;;;23.04;32.54
41686;BME280;27370;42.764;23.432;2022-11-03T13:25:23;95806.53;;;22.98;32.06
41686;BME280;27370;42.764;23.432;2022-11-03T13:27:49;95806.72;;;22.59;33.50
41686;BME280;27370;42.764;23.432;2022-11-03T13:30:22;95804.06;;;22.15;34.95
41686;BME280;27370;42.764;23.432;2022-11-03T13:32:47;95806.81;;;22.15;34.82
41686;BME280;27370;42.764;23.432;2022-11-03T13:35:13;95803.88;;;22.04;35.33
41686;BME280;27370;42.764;23.432;2022-11-03T13:37:39;95806.34;;;22.02;34.71
41686;BME280;27370;42.764;23.432;2022-11-03T13:40:05;95803.69;;;22.08;34.53
41686;BME280;27370;42.764;23.432;2022-11-03T13:42:31;95801.13;;;21.75;35.07
41686;BME280;27370;42.764;23.432;2022-11-03T13:44:56;95804.03;;;21.71;35.41
41686;BME280;27370;42.764;23.432;2022-11-03T13:47:22;95803.75;;;21.69;36.28
41686;BME280;27370;42.764;23.432;2022-11-03T13:49:48;95805.09;;;21.59;36.52